aviador You're here:

PPIZ Decoded Metar

POINT LAY in AK, USA
Report Time2018-01-17 00:56:00
UTC Time2018-01-17 01:16:46
Flight Rules vfr VFR
Wind110° at 06 kt
W.Decomp.*RWY 05: 4.2 kt HW 4.2 kt RCW
W.Rank110° ranks 22
Current wind is below 110° avg. (8.4)
Visibility9999 m
Phenomena:N/A
Clouds:Scattered 065 Hf
Expected CloudBase > 800 ft AGL from Temp-Dew spread
CeilingNone
Temp-7°C (ISA -22)
Dew Point-9°C (86% RH)
AAT-12.1°C
QNH1003 hPa
Density Alt-2,313 ft
Elevation26 ft
Report Wrong Elevation
Raw Report
PPIZ 170056Z AUTO 11006KT 10SM SCT065 M07/M09 A2963 RMK AO2 SLP037
T10671089 FZRANO TSNO=

Extra information for PPIZ:More info

Metar Taf Metar & Taf Last 4 Metars F.Rules Stats Wind Profile Meteogram Temp Stats Airport Information Weather charts Add Link Nearby VenuesMetar ALERT Operation Metar Decoded Social comments

AIRNAV info for PPIZ